Terminal Aerodrome Forecast
Issued by NWS

Home | Current Version | Previous Version | Text Only | Print | Product List | Glossary On
Versions: 1 2 3 4 5 6 7 8 9 10 11 12 13 14
000
FTUS46 KSEW 212350
TAFHQM
TAF
KHQM 212350Z 2200/2224 27010G18KT P6SM SCT025 BKN150
     FM220400 25006KT P6SM SCT015 BKN025 OVC040
     FM221000 24006KT 6SM -SHRA BR SCT010 OVC020
     FM222000 24009KT P6SM SCT020=

USA.gov is the U.S. government's official web portal to all federal, state and local government web resources and services.